sensor_id;sensor_type;location;lat;lon;timestamp;temperature;humidity
26621;DHT22;14253;44.840;10.444;2024-02-26T00:00:39;7.00;99.90
26621;DHT22;14253;44.840;10.444;2024-02-26T00:03:06;7.00;99.90
26621;DHT22;14253;44.840;10.444;2024-02-26T00:05:32;6.90;99.90
26621;DHT22;14253;44.840;10.444;2024-02-26T00:07:58;6.90;99.90
26621;DHT22;14253;44.840;10.444;2024-02-26T00:10:24;6.90;99.90
26621;DHT22;14253;44.840;10.444;2024-02-26T00:12:50;6.80;99.90
26621;DHT22;14253;44.840;10.444;2024-02-26T00:15:16;6.80;99.90
26621;DHT22;14253;44.840;10.444;2024-02-26T00:17:42;6.80;99.90
26621;DHT22;14253;44.840;10.444;2024-02-26T00:20:09;6.80;99.90
26621;DHT22;14253;44.840;10.444;2024-02-26T00:22:36;6.80;99.90
26621;DHT22;14253;44.840;10.444;2024-02-26T00:25:02;6.80;99.90
26621;DHT22;14253;44.840;10.444;2024-02-26T00:27:28;6.80;99.90
26621;DHT22;14253;44.840;10.444;2024-02-26T00:29:54;6.80;99.90
26621;DHT22;14253;44.840;10.444;2024-02-26T00:32:20;6.90;99.90
26621;DHT22;14253;44.840;10.444;2024-02-26T00:34:46;6.90;99.90
26621;DHT22;14253;44.840;10.444;2024-02-26T00:37:11;6.90;99.90
26621;DHT22;14253;44.840;10.444;2024-02-26T00:39:37;6.90;99.90
26621;DHT22;14253;44.840;10.444;2024-02-26T00:42:04;6.90;99.90
26621;DHT22;14253;44.840;10.444;2024-02-26T00:44:30;6.90;99.90
26621;DHT22;14253;44.840;10.444;2024-02-26T00:46:55;6.90;99.90
26621;DHT22;14253;44.840;10.444;2024-02-26T00:49:21;6.90;99.90
26621;DHT22;14253;44.840;10.444;2024-02-26T00:51:47;6.90;99.90
26621;DHT22;14253;44.840;10.444;2024-02-26T00:54:13;6.80;99.90
26621;DHT22;14253;44.840;10.444;2024-02-26T00:56:39;6.80;99.90
26621;DHT22;14253;44.840;10.444;2024-02-26T00:59:05;6.80;99.90
26621;DHT22;14253;44.840;10.444;2024-02-26T01:01:31;6.80;99.90
26621;DHT22;14253;44.840;10.444;2024-02-26T01:03:57;6.80;99.90
26621;DHT22;14253;44.840;10.444;2024-02-26T01:06:23;6.80;99.90
26621;DHT22;14253;44.840;10.444;2024-02-26T01:08:49;6.80;99.90
26621;DHT22;14253;44.840;10.444;2024-02-26T01:11:16;6.80;99.90
26621;DHT22;14253;44.840;10.444;2024-02-26T01:13:42;6.70;99.90
26621;DHT22;14253;44.840;10.444;2024-02-26T01:16:07;6.70;99.90
26621;DHT22;14253;44.840;10.444;2024-02-26T01:18:33;6.70;99.90
26621;DHT22;14253;44.840;10.444;2024-02-26T01:20:59;6.70;99.90
26621;DHT22;14253;44.840;10.444;2024-02-26T01:23:25;6.70;99.90
26621;DHT22;14253;44.840;10.444;2024-02-26T01:25:51;6.60;99.90
26621;DHT22;14253;44.840;10.444;2024-02-26T01:28:17;6.50;99.90
26621;DHT22;14253;44.840;10.444;2024-02-26T01:30:43;6.50;99.90
26621;DHT22;14253;44.840;10.444;2024-02-26T01:33:09;6.50;99.90
26621;DHT22;14253;44.840;10.444;2024-02-26T01:35:35;6.50;99.90
26621;DHT22;14253;44.840;10.444;2024-02-26T01:38:01;6.50;99.90
26621;DHT22;14253;44.840;10.444;2024-02-26T01:40:27;6.50;99.90
26621;DHT22;14253;44.840;10.444;2024-02-26T01:42:53;6.40;99.90
26621;DHT22;14253;44.840;10.444;2024-02-26T01:45:19;6.40;99.90
26621;DHT22;14253;44.840;10.444;2024-02-26T01:47:53;6.30;99.90
26621;DHT22;14253;44.840;10.444;2024-02-26T01:50:20;6.30;99.90
26621;DHT22;14253;44.840;10.444;2024-02-26T01:52:49;6.20;99.90
26621;DHT22;14253;44.840;10.444;2024-02-26T01:55:17;6.20;99.90
26621;DHT22;14253;44.840;10.444;2024-02-26T01:57:45;6.20;99.90
26621;DHT22;14253;44.840;10.444;2024-02-26T02:00:13;6.10;99.90
26621;DHT22;14253;44.840;10.444;2024-02-26T02:02:41;6.10;99.90
26621;DHT22;14253;44.840;10.444;2024-02-26T02:05:08;6.00;99.90
26621;DHT22;14253;44.840;10.444;2024-02-26T02:07:36;6.10;99.90
26621;DHT22;14253;44.840;10.444;2024-02-26T02:10:02;6.10;99.90
26621;DHT22;14253;44.840;10.444;2024-02-26T02:12:28;6.20;99.90
26621;DHT22;14253;44.840;10.444;2024-02-26T02:14:54;6.20;99.90
26621;DHT22;14253;44.840;10.444;2024-02-26T02:17:20;6.20;99.90
26621;DHT22;14253;44.840;10.444;2024-02-26T02:19:46;6.20;99.90
26621;DHT22;14253;44.840;10.444;2024-02-26T02:22:12;6.20;99.90
26621;DHT22;14253;44.840;10.444;2024-02-26T02:24:38;6.20;99.90
26621;DHT22;14253;44.840;10.444;2024-02-26T02:27:04;6.10;99.90
26621;DHT22;14253;44.840;10.444;2024-02-26T02:29:31;6.10;99.90
26621;DHT22;14253;44.840;10.444;2024-02-26T02:31:57;6.10;99.90
26621;DHT22;14253;44.840;10.444;2024-02-26T02:34:24;6.00;99.90
26621;DHT22;14253;44.840;10.444;2024-02-26T02:36:53;6.00;99.90
26621;DHT22;14253;44.840;10.444;2024-02-26T02:39:19;6.00;99.90
26621;DHT22;14253;44.840;10.444;2024-02-26T02:41:45;6.00;99.90
26621;DHT22;14253;44.840;10.444;2024-02-26T02:44:11;5.90;99.90
26621;DHT22;14253;44.840;10.444;2024-02-26T02:46:37;6.00;99.90
26621;DHT22;14253;44.840;10.444;2024-02-26T02:49:03;6.00;99.90
26621;DHT22;14253;44.840;10.444;2024-02-26T02:51:29;6.00;99.90
26621;DHT22;14253;44.840;10.444;2024-02-26T02:53:55;5.90;99.90
26621;DHT22;14253;44.840;10.444;2024-02-26T02:56:21;5.90;99.90
26621;DHT22;14253;44.840;10.444;2024-02-26T02:58:47;5.80;99.90
26621;DHT22;14253;44.840;10.444;2024-02-26T03:01:13;5.80;99.90
26621;DHT22;14253;44.840;10.444;2024-02-26T03:03:39;5.90;99.90
26621;DHT22;14253;44.840;10.444;2024-02-26T03:06:05;5.90;99.90
26621;DHT22;14253;44.840;10.444;2024-02-26T03:08:31;5.90;99.90
26621;DHT22;14253;44.840;10.444;2024-02-26T03:10:58;5.90;99.90
26621;DHT22;14253;44.840;10.444;2024-02-26T03:13:25;6.00;99.90
26621;DHT22;14253;44.840;10.444;2024-02-26T03:15:51;6.00;99.90
26621;DHT22;14253;44.840;10.444;2024-02-26T03:18:17;6.00;99.90
26621;DHT22;14253;44.840;10.444;2024-02-26T03:20:43;6.00;99.90
26621;DHT22;14253;44.840;10.444;2024-02-26T03:23:09;5.90;99.90
26621;DHT22;14253;44.840;10.444;2024-02-26T03:25:38;6.00;99.90
26621;DHT22;14253;44.840;10.444;2024-02-26T03:28:04;5.90;99.90
26621;DHT22;14253;44.840;10.444;2024-02-26T03:30:31;5.90;99.90
26621;DHT22;14253;44.840;10.444;2024-02-26T03:32:56;6.00;99.90
26621;DHT22;14253;44.840;10.444;2024-02-26T03:35:22;6.00;99.90
26621;DHT22;14253;44.840;10.444;2024-02-26T03:37:48;6.10;99.90
26621;DHT22;14253;44.840;10.444;2024-02-26T03:40:16;6.30;99.90
26621;DHT22;14253;44.840;10.444;2024-02-26T03:42:44;6.60;99.90
26621;DHT22;14253;44.840;10.444;2024-02-26T03:45:10;6.70;99.90
26621;DHT22;14253;44.840;10.444;2024-02-26T03:47:37;6.80;99.90
26621;DHT22;14253;44.840;10.444;2024-02-26T03:50:06;6.80;99.90
26621;DHT22;14253;44.840;10.444;2024-02-26T03:52:33;6.80;99.90
26621;DHT22;14253;44.840;10.444;2024-02-26T03:54:59;6.90;99.90
26621;DHT22;14253;44.840;10.444;2024-02-26T03:57:25;6.90;99.90
26621;DHT22;14253;44.840;10.444;2024-02-26T03:59:51;7.00;99.90
26621;DHT22;14253;44.840;10.444;2024-02-26T04:02:17;7.00;99.90
26621;DHT22;14253;44.840;10.444;2024-02-26T04:04:46;7.00;99.90
26621;DHT22;14253;44.840;10.444;2024-02-26T04:07:12;7.00;99.90
26621;DHT22;14253;44.840;10.444;2024-02-26T04:09:39;7.00;99.90
26621;DHT22;14253;44.840;10.444;2024-02-26T04:12:05;7.00;99.90
26621;DHT22;14253;44.840;10.444;2024-02-26T04:14:31;7.00;99.90
26621;DHT22;14253;44.840;10.444;2024-02-26T04:16:57;7.00;99.90
26621;DHT22;14253;44.840;10.444;2024-02-26T04:19:23;7.00;99.90
26621;DHT22;14253;44.840;10.444;2024-02-26T04:21:49;7.00;99.90
26621;DHT22;14253;44.840;10.444;2024-02-26T04:24:15;7.00;99.90
26621;DHT22;14253;44.840;10.444;2024-02-26T04:26:41;7.00;99.90
26621;DHT22;14253;44.840;10.444;2024-02-26T04:29:07;7.00;99.90
26621;DHT22;14253;44.840;10.444;2024-02-26T04:31:33;7.10;99.90
26621;DHT22;14253;44.840;10.444;2024-02-26T04:33:59;7.00;99.90
26621;DHT22;14253;44.840;10.444;2024-02-26T04:36:25;6.90;99.90
26621;DHT22;14253;44.840;10.444;2024-02-26T04:38:54;6.80;99.90
26621;DHT22;14253;44.840;10.444;2024-02-26T04:41:21;6.80;99.90
26621;DHT22;14253;44.840;10.444;2024-02-26T04:43:47;6.80;99.90
26621;DHT22;14253;44.840;10.444;2024-02-26T04:46:13;6.90;99.90
26621;DHT22;14253;44.840;10.444;2024-02-26T04:48:39;6.80;99.90
26621;DHT22;14253;44.840;10.444;2024-02-26T04:51:07;6.80;99.90
26621;DHT22;14253;44.840;10.444;2024-02-26T04:53:33;6.80;99.90
26621;DHT22;14253;44.840;10.444;2024-02-26T04:55:59;6.80;99.90
26621;DHT22;14253;44.840;10.444;2024-02-26T04:58:25;6.80;99.90
26621;DHT22;14253;44.840;10.444;2024-02-26T05:00:51;6.80;99.90
26621;DHT22;14253;44.840;10.444;2024-02-26T05:03:17;6.80;99.90
26621;DHT22;14253;44.840;10.444;2024-02-26T05:05:43;6.80;99.90
26621;DHT22;14253;44.840;10.444;2024-02-26T05:08:09;6.90;99.90
26621;DHT22;14253;44.840;10.444;2024-02-26T05:10:37;6.80;99.90
26621;DHT22;14253;44.840;10.444;2024-02-26T05:13:06;6.80;99.90
26621;DHT22;14253;44.840;10.444;2024-02-26T05:15:32;6.80;99.90
26621;DHT22;14253;44.840;10.444;2024-02-26T05:17:58;6.80;99.90
26621;DHT22;14253;44.840;10.444;2024-02-26T05:20:25;6.80;99.90
26621;DHT22;14253;44.840;10.444;2024-02-26T05:22:51;6.80;99.90
26621;DHT22;14253;44.840;10.444;2024-02-26T05:25:17;6.80;99.90
26621;DHT22;14253;44.840;10.444;2024-02-26T05:27:43;6.80;99.90
26621;DHT22;14253;44.840;10.444;2024-02-26T05:30:10;6.80;99.90
26621;DHT22;14253;44.840;10.444;2024-02-26T05:32:36;6.90;99.90
26621;DHT22;14253;44.840;10.444;2024-02-26T05:35:03;6.90;99.90
26621;DHT22;14253;44.840;10.444;2024-02-26T05:37:30;6.90;99.90
26621;DHT22;14253;44.840;10.444;2024-02-26T05:39:56;6.90;99.90
26621;DHT22;14253;44.840;10.444;2024-02-26T05:42:22;6.90;99.90
26621;DHT22;14253;44.840;10.444;2024-02-26T05:44:48;6.90;99.90
26621;DHT22;14253;44.840;10.444;2024-02-26T05:47:13;6.90;99.90
26621;DHT22;14253;44.840;10.444;2024-02-26T05:49:40;6.90;99.90
26621;DHT22;14253;44.840;10.444;2024-02-26T05:52:06;6.90;99.90
26621;DHT22;14253;44.840;10.444;2024-02-26T05:54:32;6.90;99.90
26621;DHT22;14253;44.840;10.444;2024-02-26T05:56:58;7.00;99.90
26621;DHT22;14253;44.840;10.444;2024-02-26T05:59:24;6.90;99.90
26621;DHT22;14253;44.840;10.444;2024-02-26T06:01:50;6.90;99.90
26621;DHT22;14253;44.840;10.444;2024-02-26T06:04:16;6.90;99.90
26621;DHT22;14253;44.840;10.444;2024-02-26T06:06:45;6.90;99.90
26621;DHT22;14253;44.840;10.444;2024-02-26T06:09:13;6.90;99.90
26621;DHT22;14253;44.840;10.444;2024-02-26T06:11:39;6.90;99.90
26621;DHT22;14253;44.840;10.444;2024-02-26T06:14:05;6.90;99.90
26621;DHT22;14253;44.840;10.444;2024-02-26T06:16:31;6.90;99.90
26621;DHT22;14253;44.840;10.444;2024-02-26T06:18:57;6.90;99.90
26621;DHT22;14253;44.840;10.444;2024-02-26T06:21:23;6.80;99.90
26621;DHT22;14253;44.840;10.444;2024-02-26T06:23:49;6.80;99.90
26621;DHT22;14253;44.840;10.444;2024-02-26T06:26:16;6.80;99.90
26621;DHT22;14253;44.840;10.444;2024-02-26T06:28:42;6.80;99.90
26621;DHT22;14253;44.840;10.444;2024-02-26T06:31:08;6.90;99.90
26621;DHT22;14253;44.840;10.444;2024-02-26T06:33:34;6.80;99.90
26621;DHT22;14253;44.840;10.444;2024-02-26T06:36:00;6.80;99.90
26621;DHT22;14253;44.840;10.444;2024-02-26T06:38:26;6.80;99.90
26621;DHT22;14253;44.840;10.444;2024-02-26T06:40:53;6.80;99.90
26621;DHT22;14253;44.840;10.444;2024-02-26T06:43:19;6.80;99.90
26621;DHT22;14253;44.840;10.444;2024-02-26T06:45:45;6.80;99.90
26621;DHT22;14253;44.840;10.444;2024-02-26T06:48:11;6.80;99.90
26621;DHT22;14253;44.840;10.444;2024-02-26T06:50:37;6.70;99.90
26621;DHT22;14253;44.840;10.444;2024-02-26T06:53:03;6.70;99.90
26621;DHT22;14253;44.840;10.444;2024-02-26T06:55:29;6.70;99.90
26621;DHT22;14253;44.840;10.444;2024-02-26T06:57:55;6.70;99.90
26621;DHT22;14253;44.840;10.444;2024-02-26T07:00:21;6.80;99.90
26621;DHT22;14253;44.840;10.444;2024-02-26T07:02:47;6.70;99.90
26621;DHT22;14253;44.840;10.444;2024-02-26T07:05:14;6.70;99.90
26621;DHT22;14253;44.840;10.444;2024-02-26T07:07:40;6.80;99.90
26621;DHT22;14253;44.840;10.444;2024-02-26T07:10:09;6.80;99.90
26621;DHT22;14253;44.840;10.444;2024-02-26T07:12:35;6.80;99.90
26621;DHT22;14253;44.840;10.444;2024-02-26T07:15:01;6.80;99.90
26621;DHT22;14253;44.840;10.444;2024-02-26T07:17:28;6.80;99.90
26621;DHT22;14253;44.840;10.444;2024-02-26T07:19:55;6.70;99.90
26621;DHT22;14253;44.840;10.444;2024-02-26T07:22:21;6.70;99.90
26621;DHT22;14253;44.840;10.444;2024-02-26T07:24:47;6.80;99.90
26621;DHT22;14253;44.840;10.444;2024-02-26T07:27:13;6.70;99.90
26621;DHT22;14253;44.840;10.444;2024-02-26T07:29:39;6.70;99.90
26621;DHT22;14253;44.840;10.444;2024-02-26T07:32:06;6.70;99.90
26621;DHT22;14253;44.840;10.444;2024-02-26T07:34:32;6.70;99.90
26621;DHT22;14253;44.840;10.444;2024-02-26T07:36:58;6.70;99.90
26621;DHT22;14253;44.840;10.444;2024-02-26T07:39:24;6.70;99.90
26621;DHT22;14253;44.840;10.444;2024-02-26T07:41:50;6.70;99.90
26621;DHT22;14253;44.840;10.444;2024-02-26T07:44:19;6.60;99.90
26621;DHT22;14253;44.840;10.444;2024-02-26T07:46:45;6.60;99.90
26621;DHT22;14253;44.840;10.444;2024-02-26T07:49:11;6.70;99.90
26621;DHT22;14253;44.840;10.444;2024-02-26T07:51:37;6.70;99.90
26621;DHT22;14253;44.840;10.444;2024-02-26T07:54:03;6.70;99.90
26621;DHT22;14253;44.840;10.444;2024-02-26T07:56:29;6.80;99.90
26621;DHT22;14253;44.840;10.444;2024-02-26T07:58:57;6.80;99.90
26621;DHT22;14253;44.840;10.444;2024-02-26T08:01:23;6.90;99.90
26621;DHT22;14253;44.840;10.444;2024-02-26T08:03:51;6.90;99.90
26621;DHT22;14253;44.840;10.444;2024-02-26T08:06:17;7.00;99.90
26621;DHT22;14253;44.840;10.444;2024-02-26T08:08:46;7.10;99.90
26621;DHT22;14253;44.840;10.444;2024-02-26T08:11:14;7.10;99.90
26621;DHT22;14253;44.840;10.444;2024-02-26T08:13:41;7.20;99.90
26621;DHT22;14253;44.840;10.444;2024-02-26T08:16:08;7.30;99.90
26621;DHT22;14253;44.840;10.444;2024-02-26T08:18:34;7.40;99.90
26621;DHT22;14253;44.840;10.444;2024-02-26T08:21:00;7.50;99.90
26621;DHT22;14253;44.840;10.444;2024-02-26T08:23:26;7.50;99.90
26621;DHT22;14253;44.840;10.444;2024-02-26T08:25:53;7.60;99.90
26621;DHT22;14253;44.840;10.444;2024-02-26T08:28:19;7.60;99.90
26621;DHT22;14253;44.840;10.444;2024-02-26T08:30:46;7.60;99.90
26621;DHT22;14253;44.840;10.444;2024-02-26T08:33:12;7.50;99.90
26621;DHT22;14253;44.840;10.444;2024-02-26T08:35:39;7.60;99.90
26621;DHT22;14253;44.840;10.444;2024-02-26T08:38:05;7.60;99.90
26621;DHT22;14253;44.840;10.444;2024-02-26T08:40:31;7.60;99.90
26621;DHT22;14253;44.840;10.444;2024-02-26T08:42:57;7.50;99.90
26621;DHT22;14253;44.840;10.444;2024-02-26T08:45:24;7.50;99.90
26621;DHT22;14253;44.840;10.444;2024-02-26T08:47:52;7.50;99.90
26621;DHT22;14253;44.840;10.444;2024-02-26T08:50:18;7.50;99.90
26621;DHT22;14253;44.840;10.444;2024-02-26T08:52:44;7.50;99.90
26621;DHT22;14253;44.840;10.444;2024-02-26T08:55:14;7.60;99.90
26621;DHT22;14253;44.840;10.444;2024-02-26T08:57:40;7.60;99.90
26621;DHT22;14253;44.840;10.444;2024-02-26T09:00:06;7.60;99.90
26621;DHT22;14253;44.840;10.444;2024-02-26T09:02:32;7.60;99.90
26621;DHT22;14253;44.840;10.444;2024-02-26T09:04:59;7.50;99.90
26621;DHT22;14253;44.840;10.444;2024-02-26T09:07:26;7.60;99.90
26621;DHT22;14253;44.840;10.444;2024-02-26T09:09:52;7.60;99.90
26621;DHT22;14253;44.840;10.444;2024-02-26T09:12:18;7.60;99.90
26621;DHT22;14253;44.840;10.444;2024-02-26T09:14:45;7.60;99.90
26621;DHT22;14253;44.840;10.444;2024-02-26T09:17:11;7.60;99.90
26621;DHT22;14253;44.840;10.444;2024-02-26T09:19:37;7.70;99.90
26621;DHT22;14253;44.840;10.444;2024-02-26T09:22:04;7.80;99.90
26621;DHT22;14253;44.840;10.444;2024-02-26T09:24:30;7.80;99.90
26621;DHT22;14253;44.840;10.444;2024-02-26T09:26:56;7.90;99.90
26621;DHT22;14253;44.840;10.444;2024-02-26T09:29:22;7.90;99.90
26621;DHT22;14253;44.840;10.444;2024-02-26T09:31:48;8.00;99.90
26621;DHT22;14253;44.840;10.444;2024-02-26T09:34:14;8.10;99.90
26621;DHT22;14253;44.840;10.444;2024-02-26T09:36:40;8.10;99.90
26621;DHT22;14253;44.840;10.444;2024-02-26T09:39:06;8.10;99.90
26621;DHT22;14253;44.840;10.444;2024-02-26T09:41:37;8.20;99.90
26621;DHT22;14253;44.840;10.444;2024-02-26T09:44:05;8.40;99.90
26621;DHT22;14253;44.840;10.444;2024-02-26T09:46:31;8.40;99.90
26621;DHT22;14253;44.840;10.444;2024-02-26T09:48:57;8.60;99.90
26621;DHT22;14253;44.840;10.444;2024-02-26T09:51:24;8.60;99.90
26621;DHT22;14253;44.840;10.444;2024-02-26T09:53:55;8.70;99.90
26621;DHT22;14253;44.840;10.444;2024-02-26T09:56:22;8.80;99.90
26621;DHT22;14253;44.840;10.444;2024-02-26T09:58:50;8.80;99.90
26621;DHT22;14253;44.840;10.444;2024-02-26T10:01:20;8.80;99.90
26621;DHT22;14253;44.840;10.444;2024-02-26T10:04:00;8.90;99.90
26621;DHT22;14253;44.840;10.444;2024-02-26T10:06:29;8.90;99.90
26621;DHT22;14253;44.840;10.444;2024-02-26T10:08:56;9.00;99.90
26621;DHT22;14253;44.840;10.444;2024-02-26T10:11:24;8.90;99.90
26621;DHT22;14253;44.840;10.444;2024-02-26T10:13:50;8.90;99.90
26621;DHT22;14253;44.840;10.444;2024-02-26T10:16:16;8.90;99.90
26621;DHT22;14253;44.840;10.444;2024-02-26T10:18:49;8.90;99.90
26621;DHT22;14253;44.840;10.444;2024-02-26T10:21:22;9.00;99.90
26621;DHT22;14253;44.840;10.444;2024-02-26T10:23:49;8.90;99.90
26621;DHT22;14253;44.840;10.444;2024-02-26T10:26:19;8.90;99.90
26621;DHT22;14253;44.840;10.444;2024-02-26T10:28:46;8.90;99.90
26621;DHT22;14253;44.840;10.444;2024-02-26T10:31:14;8.90;99.90
26621;DHT22;14253;44.840;10.444;2024-02-26T10:33:41;8.90;99.90
26621;DHT22;14253;44.840;10.444;2024-02-26T10:36:08;8.80;99.90
26621;DHT22;14253;44.840;10.444;2024-02-26T10:38:35;8.90;99.90
26621;DHT22;14253;44.840;10.444;2024-02-26T10:41:09;8.90;99.90
26621;DHT22;14253;44.840;10.444;2024-02-26T10:43:38;8.90;99.90
26621;DHT22;14253;44.840;10.444;2024-02-26T10:46:05;8.90;99.90
26621;DHT22;14253;44.840;10.444;2024-02-26T10:48:34;9.00;99.90
26621;DHT22;14253;44.840;10.444;2024-02-26T10:51:00;9.00;99.90
26621;DHT22;14253;44.840;10.444;2024-02-26T10:53:29;8.90;99.90
26621;DHT22;14253;44.840;10.444;2024-02-26T10:56:01;9.00;99.90
26621;DHT22;14253;44.840;10.444;2024-02-26T10:58:29;9.10;99.90
26621;DHT22;14253;44.840;10.444;2024-02-26T11:00:57;9.10;99.90
26621;DHT22;14253;44.840;10.444;2024-02-26T11:03:25;9.10;99.90
26621;DHT22;14253;44.840;10.444;2024-02-26T11:05:51;9.10;99.90
26621;DHT22;14253;44.840;10.444;2024-02-26T11:08:21;9.10;99.90
26621;DHT22;14253;44.840;10.444;2024-02-26T11:10:48;9.20;99.90
26621;DHT22;14253;44.840;10.444;2024-02-26T11:13:18;9.20;99.90
26621;DHT22;14253;44.840;10.444;2024-02-26T11:15:46;9.30;99.90
26621;DHT22;14253;44.840;10.444;2024-02-26T11:18:16;9.30;99.90
26621;DHT22;14253;44.840;10.444;2024-02-26T11:20:47;9.30;99.90
26621;DHT22;14253;44.840;10.444;2024-02-26T11:23:14;9.30;99.90
26621;DHT22;14253;44.840;10.444;2024-02-26T11:25:41;9.40;99.90
26621;DHT22;14253;44.840;10.444;2024-02-26T11:28:13;9.40;99.90
26621;DHT22;14253;44.840;10.444;2024-02-26T11:30:44;9.30;99.90
26621;DHT22;14253;44.840;10.444;2024-02-26T11:33:11;9.40;99.90
26621;DHT22;14253;44.840;10.444;2024-02-26T11:35:39;9.30;99.90
26621;DHT22;14253;44.840;10.444;2024-02-26T11:38:05;9.30;99.90
26621;DHT22;14253;44.840;10.444;2024-02-26T11:40:37;9.30;99.90
26621;DHT22;14253;44.840;10.444;2024-02-26T11:43:05;9.30;99.90
26621;DHT22;14253;44.840;10.444;2024-02-26T11:48:15;9.40;99.90
26621;DHT22;14253;44.840;10.444;2024-02-26T11:50:50;9.40;99.90
26621;DHT22;14253;44.840;10.444;2024-02-26T11:53:30;9.40;99.90
26621;DHT22;14253;44.840;10.444;2024-02-26T11:56:33;9.40;99.90
26621;DHT22;14253;44.840;10.444;2024-02-26T11:59:04;9.50;99.90
26621;DHT22;14253;44.840;10.444;2024-02-26T12:01:46;9.40;99.90
26621;DHT22;14253;44.840;10.444;2024-02-26T12:04:26;9.50;99.90
26621;DHT22;14253;44.840;10.444;2024-02-26T12:06:57;9.50;99.90
26621;DHT22;14253;44.840;10.444;2024-02-26T12:09:39;9.50;99.90
26621;DHT22;14253;44.840;10.444;2024-02-26T12:12:08;9.50;99.90
26621;DHT22;14253;44.840;10.444;2024-02-26T12:14:38;9.50;99.90
26621;DHT22;14253;44.840;10.444;2024-02-26T12:17:04;9.40;99.90
26621;DHT22;14253;44.840;10.444;2024-02-26T12:19:37;9.40;99.90
26621;DHT22;14253;44.840;10.444;2024-02-26T12:22:06;9.50;99.90
26621;DHT22;14253;44.840;10.444;2024-02-26T12:24:32;9.60;99.90
26621;DHT22;14253;44.840;10.444;2024-02-26T12:26:59;9.80;99.90
26621;DHT22;14253;44.840;10.444;2024-02-26T12:29:25;9.90;99.90
26621;DHT22;14253;44.840;10.444;2024-02-26T12:31:51;10.00;99.90
26621;DHT22;14253;44.840;10.444;2024-02-26T12:34:17;10.00;99.90
26621;DHT22;14253;44.840;10.444;2024-02-26T12:36:44;10.00;99.90
26621;DHT22;14253;44.840;10.444;2024-02-26T12:39:10;10.00;99.90
26621;DHT22;14253;44.840;10.444;2024-02-26T12:41:38;10.00;99.90
26621;DHT22;14253;44.840;10.444;2024-02-26T12:44:04;9.90;99.90
26621;DHT22;14253;44.840;10.444;2024-02-26T12:46:32;9.90;99.90
26621;DHT22;14253;44.840;10.444;2024-02-26T12:48:58;9.90;99.90
26621;DHT22;14253;44.840;10.444;2024-02-26T12:51:26;9.90;99.90
26621;DHT22;14253;44.840;10.444;2024-02-26T12:53:53;9.90;99.90
26621;DHT22;14253;44.840;10.444;2024-02-26T12:56:20;10.10;99.90
26621;DHT22;14253;44.840;10.444;2024-02-26T12:58:47;10.20;99.90
26621;DHT22;14253;44.840;10.444;2024-02-26T13:01:16;10.20;99.90
26621;DHT22;14253;44.840;10.444;2024-02-26T13:03:43;10.30;99.90
26621;DHT22;14253;44.840;10.444;2024-02-26T13:06:10;10.30;99.90
26621;DHT22;14253;44.840;10.444;2024-02-26T13:08:36;10.30;99.90
26621;DHT22;14253;44.840;10.444;2024-02-26T13:11:03;10.30;99.90
26621;DHT22;14253;44.840;10.444;2024-02-26T13:13:29;10.30;99.90
26621;DHT22;14253;44.840;10.444;2024-02-26T13:16:23;10.40;99.90
26621;DHT22;14253;44.840;10.444;2024-02-26T13:18:50;10.40;99.90
26621;DHT22;14253;44.840;10.444;2024-02-26T13:21:18;10.40;99.90
26621;DHT22;14253;44.840;10.444;2024-02-26T13:23:48;10.50;99.90
26621;DHT22;14253;44.840;10.444;2024-02-26T13:26:15;10.50;99.90
26621;DHT22;14253;44.840;10.444;2024-02-26T13:28:41;10.50;99.90
26621;DHT22;14253;44.840;10.444;2024-02-26T13:31:08;10.50;99.90
26621;DHT22;14253;44.840;10.444;2024-02-26T13:33:34;10.40;99.90
26621;DHT22;14253;44.840;10.444;2024-02-26T13:36:00;10.30;99.90
26621;DHT22;14253;44.840;10.444;2024-02-26T13:38:27;10.20;99.90
26621;DHT22;14253;44.840;10.444;2024-02-26T13:40:56;10.20;99.90
26621;DHT22;14253;44.840;10.444;2024-02-26T13:43:23;10.20;99.90
26621;DHT22;14253;44.840;10.444;2024-02-26T13:45:49;10.10;99.90
26621;DHT22;14253;44.840;10.444;2024-02-26T13:48:15;10.10;99.90
26621;DHT22;14253;44.840;10.444;2024-02-26T13:50:42;10.10;99.90
26621;DHT22;14253;44.840;10.444;2024-02-26T13:53:09;10.00;99.90
26621;DHT22;14253;44.840;10.444;2024-02-26T13:55:35;10.00;99.90
26621;DHT22;14253;44.840;10.444;2024-02-26T13:58:02;10.00;99.90
26621;DHT22;14253;44.840;10.444;2024-02-26T14:00:31;10.20;99.90
26621;DHT22;14253;44.840;10.444;2024-02-26T14:03:00;10.30;99.90
26621;DHT22;14253;44.840;10.444;2024-02-26T14:05:26;10.40;99.90
26621;DHT22;14253;44.840;10.444;2024-02-26T14:07:53;10.50;99.90
26621;DHT22;14253;44.840;10.444;2024-02-26T14:10:20;10.40;99.90
26621;DHT22;14253;44.840;10.444;2024-02-26T14:12:46;10.30;99.90
26621;DHT22;14253;44.840;10.444;2024-02-26T14:15:12;10.20;99.90
26621;DHT22;14253;44.840;10.444;2024-02-26T14:17:38;10.30;99.90
26621;DHT22;14253;44.840;10.444;2024-02-26T14:20:05;10.30;99.90
26621;DHT22;14253;44.840;10.444;2024-02-26T14:22:33;10.30;99.90
26621;DHT22;14253;44.840;10.444;2024-02-26T14:24:59;10.30;99.90
26621;DHT22;14253;44.840;10.444;2024-02-26T14:27:26;10.40;99.90
26621;DHT22;14253;44.840;10.444;2024-02-26T14:29:52;10.40;99.90
26621;DHT22;14253;44.840;10.444;2024-02-26T14:32:21;10.60;99.90
26621;DHT22;14253;44.840;10.444;2024-02-26T14:34:48;10.60;99.90
26621;DHT22;14253;44.840;10.444;2024-02-26T14:37:14;10.70;99.90
26621;DHT22;14253;44.840;10.444;2024-02-26T14:39:41;10.70;99.90
26621;DHT22;14253;44.840;10.444;2024-02-26T14:42:07;10.70;99.90
26621;DHT22;14253;44.840;10.444;2024-02-26T14:44:33;10.60;99.90
26621;DHT22;14253;44.840;10.444;2024-02-26T14:46:59;10.70;99.90
26621;DHT22;14253;44.840;10.444;2024-02-26T14:49:25;10.70;99.90
26621;DHT22;14253;44.840;10.444;2024-02-26T14:51:51;10.70;99.90
26621;DHT22;14253;44.840;10.444;2024-02-26T14:54:18;10.60;99.90
26621;DHT22;14253;44.840;10.444;2024-02-26T14:56:45;10.60;99.90
26621;DHT22;14253;44.840;10.444;2024-02-26T14:59:11;10.60;99.90
26621;DHT22;14253;44.840;10.444;2024-02-26T15:01:37;10.50;99.90
26621;DHT22;14253;44.840;10.444;2024-02-26T15:04:03;10.40;99.90
26621;DHT22;14253;44.840;10.444;2024-02-26T15:06:29;10.30;99.90
26621;DHT22;14253;44.840;10.444;2024-02-26T15:08:55;10.30;99.90
26621;DHT22;14253;44.840;10.444;2024-02-26T15:11:21;10.30;99.90
26621;DHT22;14253;44.840;10.444;2024-02-26T15:13:48;10.20;99.90
26621;DHT22;14253;44.840;10.444;2024-02-26T15:16:18;10.20;99.90
26621;DHT22;14253;44.840;10.444;2024-02-26T15:18:47;10.20;99.90
26621;DHT22;14253;44.840;10.444;2024-02-26T15:21:13;10.10;99.90
26621;DHT22;14253;44.840;10.444;2024-02-26T15:23:43;10.10;99.90
26621;DHT22;14253;44.840;10.444;2024-02-26T15:26:10;10.00;99.90
26621;DHT22;14253;44.840;10.444;2024-02-26T15:28:36;9.90;99.90